Chandler Field
KAXN : rendu visible

Aérodrome :











RETROUVEZ-NOUS SUR...

 
LOGIN :

S'inscrire | Disclaimer

   EN    FR    IT 

 









Légende :    VFR   VFR Marginal   IFR   IFR Intensif   IFR Très Intensif
Visi : 
Plafond : 
>= 8 km
>= 3000ft
5 à 8 km
1000 à 3000 ft
1500m à 5 km
500 à 1000 ft
800 à 1500m
200 à 500 ft
< 800m
< 200 ft
Symboles :   Orages  Brouillard  Fortes neiges  Fortes précipitations  Vent > 20 kt







- Altitude de l'aérodrome : 1425 ft


KAXN - Chandler Field

DERNIER METAR :
  • 210253Z AUTO 14012KT 10SM CLR 23/21 A2986 RMK AO2 SLP103 T02330211 58006

METARs EXPIRÉS :
  • 210153Z AUTO 13009G22KT 10SM CLR 24/21 A2986 RMK AO2 SLP106 T02440211
  • 210053Z AUTO 13012KT 10SM CLR 25/22 A2987 RMK AO2 SLP109 T02500217

TAF KAXN
Valide du 21 à 00h jusqu'au 22 à 00h UTC


202325Z 2100/2124 15012G19KT P6SM SCT180
FM210500 17013KT P6SM VCSH SCT025 BKN100
FM211100 18012KT 6SM -RA BR SCT012 BKN025
TEMPO 2111/2115 3SM TSRA BR BKN012CB
FM211500 18016G25KT P6SM VCSH OVC008
FM211800 19014G24KT P6SM BKN017
Pas de NOTAMs connus pour ce terrain.



MET'MAP, la Météo Aéronautique d'un coup d'oeil ! - Copyright ORBIFLY Décembre 2007 - Disclaimer

ORBIFLY MET'MAP TEAM :

Programmation & Développement : Alexandra Zaïnal
Conception & Développement : Baudouin d'Aumeries
Co-Programmation & Développement : Marc-Olivier Méhu
Soutien technique & logistique : Manuel Goepfert

Contact : metmap@orbifly.com




SOURCES & CREDITS :

   NOAA       Earth
Advisory